Terminal Aerodrome Forecast
Issued by NWS Shreveport, LA

Home | Current Version | Previous Version | Text Only | Print | Product List | Glossary On
Versions: 1 2 3 4 5 6 7 8 9 10 11 12 13 14 15 16 17
000
FTUS44 KSHV 300547
TAFELD
TAF
KELD 300547Z 3006/3106 VRB06KT P6SM FEW050 SCT150 BKN250
      TEMPO 3009/3012 4SM BR SCT050 BKN150
     FM301200 00000KT 6SM BR SCT050 BKN150
     FM301400 14004KT P6SM SCT060 SCT180
     FM302100 12005KT P6SM BKN050
     FM310300 00000KT P6SM VCTS BKN050CB BKN150=

USA.gov is the U.S. government's official web portal to all federal, state and local government web resources and services.